Latest Weather Observations for Bickley

IDW60801

Issued at 10:02 pm WST Friday 12 February 2016 (issued every 30 minutes, with the page automatically refreshed every 10 minutes)

About weather observations | Map of weather stations | Latest weather observations for WA | Other Formats
Station Details ID: 009240 Name: BICKLEY Lat: -32.01 Lon: 116.14 Height: 384.0 m
Data from the previous 72 hours. | See also: Recent months at Bickley
Date/Time
WST
Temp
°C
App
Temp
°C
Dew
Point
Rel
Hum
%
Delta-T
°C
Wind Press
QNH
hPa
Press
MSL
hPa
Rain
since 9 am
mm
Dir
 
Spd
km/h
Gust
km/h
Spd
kts
Gust
kts
12/10:00pm 20.1 18.5 14.9 72 3.1 SSW 17 24 9 13 - - 0.0
12/09:30pm 20.2 18.2 15.0 72 3.1 SSW 19 24 10 13 - - 0.0
12/09:00pm 20.6 18.6 14.9 70 3.4 SW 19 28 10 15 - - 0.0
12/08:30pm 20.9 18.7 15.0 69 3.5 SW 20 30 11 16 - - 0.0
12/08:00pm 21.6 19.0 15.0 66 4.0 SW 22 33 12 18 - - 0.0
12/07:30pm 22.3 20.1 14.9 63 4.5 SW 20 32 11 17 - - 0.0
12/07:00pm 23.1 21.1 14.9 60 5.0 SW 19 30 10 16 - - 0.0
12/06:30pm 24.0 21.9 14.7 56 5.6 SW 19 30 10 16 - - 0.0
12/06:00pm 25.2 22.1 14.6 51 6.4 SW 24 35 13 19 - - 0.0
12/05:30pm 26.0 24.3 14.8 50 6.8 WSW 17 26 9 14 - - 0.0
12/05:00pm 27.1 24.6 15.1 47 7.4 SW 22 33 12 18 - - 0.0
12/04:30pm 27.8 25.4 14.4 43 8.2 SW 20 33 11 18 - - 0.0
12/04:00pm 29.1 26.7 13.7 38 9.3 WSW 19 33 10 18 - - 0.0
12/03:30pm 30.0 27.7 12.9 35 10.3 SW 17 32 9 17 - - 0.0
12/03:00pm 30.3 27.0 10.8 30 11.4 SW 19 28 10 15 - - 0.0
12/02:30pm 30.0 27.0 12.0 33 10.7 SW 19 32 10 17 - - 0.0
12/02:00pm 30.4 27.7 12.8 34 10.6 SW 19 30 10 16 - - 0.0
12/01:30pm 30.1 27.3 12.5 34 10.5 SW 19 32 10 17 - - 0.0
12/01:00pm 30.8 27.4 10.7 29 11.7 WSW 19 30 10 16 - - 0.0
12/12:30pm 30.6 28.1 11.1 30 11.4 WSW 15 26 8 14 - - 0.0
12/12:00pm 29.5 28.5 12.4 35 10.2 SW 9 20 5 11 - - 0.0
12/11:30am 29.5 28.6 13.7 38 9.6 WSW 11 22 6 12 - - 0.0
12/11:00am 28.6 27.5 15.2 44 8.3 WSW 15 24 8 13 - - 0.0
12/10:30am 29.9 27.4 8.3 26 12.1 SSW 11 20 6 11 - - 0.0
12/10:00am 28.8 26.6 7.9 27 11.5 SSW 9 17 5 9 - - 0.0
12/09:30am 27.3 26.4 11.3 37 9.3 S 7 11 4 6 - - 0.0
12/09:00am 26.4 24.9 10.5 37 9.1 S 9 15 5 8 - - 0.0
12/08:30am 24.3 24.6 16.0 60 5.1 SSE 9 15 5 8 - - 0.0
12/08:00am 22.6 24.1 17.5 73 3.2 SSE 6 11 3 6 - - 0.0
12/07:30am 21.3 22.0 17.1 77 2.6 SSE 9 15 5 8 - - 0.0
12/07:00am 20.8 20.9 17.4 81 2.1 SSE 13 22 7 12 - - 0.0
12/06:30am 19.7 19.2 16.9 84 1.7 SSE 15 22 8 12 - - 0.0
12/06:00am 19.4 18.9 16.8 85 1.6 SSE 15 22 8 12 - - 0.0
12/05:30am 19.1 18.4 16.5 85 1.6 S 15 20 8 11 - - 0.0
12/05:00am 19.2 18.9 16.4 84 1.7 S 13 17 7 9 - - 0.0
12/04:30am 19.5 19.1 16.3 82 2.0 S 13 17 7 9 - - 0.0
12/04:00am 19.7 19.2 16.9 84 1.7 SSE 15 26 8 14 - - 0.0
12/03:30am 19.5 19.2 16.5 83 1.8 S 13 22 7 12 - - 0.0
12/03:00am 20.5 19.6 17.7 84 1.8 SSE 19 28 10 15 - - 0.0
12/02:30am 19.7 19.2 17.7 88 1.2 SSE 17 24 9 13 - - 0.0
12/02:00am 19.6 19.4 17.6 88 1.2 S 15 24 8 13 - - 0.0
12/01:30am 19.6 19.4 17.7 89 1.2 S 15 22 8 12 - - 0.0
12/01:00am 19.7 19.6 17.8 89 1.2 SSW 15 20 8 11 - - 0.0
12/12:30am 19.8 19.3 17.9 89 1.2 SSW 17 24 9 13 - - 0.0
12/12:00am 19.8 19.0 17.9 89 1.2 SW 19 28 10 15 - - 0.0
 
Date/Time
WST
Temp
°C
App
Temp
°C
Dew
Point
Rel
Hum
%
Delta-T
°C
Wind Press
QNH
hPa
Press
MSL
hPa
Rain
since 9 am
mm
Dir
 
Spd
km/h
Gust
km/h
Spd
kts
Gust
kts
11/11:30pm 19.7 19.2 17.7 88 1.2 WSW 17 24 9 13 - - 0.0
11/11:00pm 19.9 18.6 17.3 85 1.6 SW 20 26 11 14 - - 0.0
11/10:30pm 20.6 19.2 17.0 80 2.2 SW 20 30 11 16 - - 0.0
11/10:00pm 21.2 20.4 17.0 77 2.6 SW 17 26 9 14 - - 0.0
11/09:30pm 21.0 19.7 17.2 79 2.4 SW 20 28 11 15 - - 0.0
11/09:00pm 21.2 20.0 17.4 79 2.4 WSW 20 30 11 16 - - 0.0
11/08:30pm 22.1 20.5 17.5 75 2.9 WSW 22 30 12 16 - - 0.0
11/08:00pm 23.8 21.6 17.8 69 3.8 WSW 26 33 14 18 - - 0.0
11/07:30pm 25.8 24.1 17.2 59 5.4 WSW 22 32 12 17 - - 0.0
11/07:00pm 28.3 23.7 6.4 25 11.8 WSW 20 32 11 17 - - 0.0
11/06:30pm 29.9 24.9 6.5 23 12.7 WSW 22 32 12 17 - - 0.0
11/06:00pm 31.3 27.7 8.3 24 12.9 WSW 17 28 9 15 - - 0.0
11/05:30pm 32.6 29.6 10.6 26 12.9 WSW 17 30 9 16 - - 0.0
11/05:00pm 33.6 30.7 10.9 25 13.4 WSW 17 26 9 14 - - 0.0
11/04:30pm 34.4 31.9 10.9 24 14.0 W 15 28 8 15 - - 0.0
11/04:00pm 33.8 30.7 11.6 26 13.3 W 19 32 10 17 - - 0.0
11/03:30pm 34.3 31.8 14.2 29 12.5 W 20 32 11 17 - - 0.0
11/03:00pm 35.4 31.8 11.7 23 14.3 W 22 30 12 16 - - 0.0
11/02:30pm 35.9 33.2 13.4 26 13.9 WNW 20 35 11 19 - - 0.0
11/02:00pm 36.1 34.6 15.2 28 13.3 W 17 32 9 17 - - 0.0
11/01:30pm 36.4 33.4 11.9 23 14.9 WNW 19 32 10 17 - - 0.0
11/01:00pm 36.5 33.7 11.3 22 15.2 WNW 17 32 9 17 - - 0.0
11/12:30pm 36.5 34.7 13.3 25 14.4 WNW 15 30 8 16 - - 0.0
11/12:00pm 35.9 33.5 11.5 23 14.7 NW 15 28 8 15 - - 0.0
11/11:30am 35.3 34.1 12.9 26 13.7 NW 11 26 6 14 - - 0.0
11/11:00am 35.6 34.5 13.1 25 13.9 NW 11 20 6 11 - - 0.0
11/10:30am 33.7 33.9 14.7 32 11.9 NNW 7 11 4 6 - - 0.0
11/10:00am 32.5 32.6 15.5 36 10.7 NNE 9 20 5 11 - - 0.0
11/09:30am 30.5 30.8 14.6 38 9.8 NNE 6 11 3 6 - - 0.0
11/09:00am 29.4 30.1 15.5 43 8.7 NE 6 13 3 7 - - -
11/08:30am 26.9 27.4 15.0 48 7.3 NNE 6 11 3 6 - - -
11/08:00am 25.9 26.7 15.9 54 6.2 N 6 11 3 6 - - -
11/07:30am 24.8 25.7 16.2 58 5.3 NNE 6 11 3 6 - - -
11/07:00am 23.4 22.9 16.0 63 4.6 ENE 13 20 7 11 - - -
11/06:30am 21.4 19.6 15.5 69 3.6 E 19 26 10 14 - - -
11/06:00am 21.1 19.0 15.2 69 3.6 E 20 28 11 15 - - -
11/05:30am 21.5 18.6 15.1 67 3.9 E 24 30 13 16 - - -
11/05:00am 21.6 19.6 15.0 66 4.0 E 19 26 10 14 - - -
11/04:30am 22.4 20.2 15.0 63 4.5 E 20 32 11 17 - - -
11/04:00am 22.9 20.7 15.0 61 4.8 E 20 28 11 15 - - -
11/03:30am 23.3 21.2 14.8 59 5.1 E 19 28 10 15 - - -
11/03:00am 23.8 21.7 14.8 57 5.4 E 19 24 10 13 - - -
11/02:30am 24.7 22.5 14.5 53 6.2 E 19 28 10 15 - - -
11/02:00am 25.1 22.5 13.3 48 7.0 E 19 28 10 15 - - -
11/01:30am 25.2 22.7 12.4 45 7.5 E 17 24 9 13 - - -
11/01:00am 25.7 22.6 10.3 38 8.7 E 17 24 9 13 - - -
11/12:30am 26.2 22.4 7.7 31 10.0 ESE 17 24 9 13 - - -
11/12:00am 26.9 23.6 7.9 30 10.4 SE 15 22 8 12 - - -
 
Date/Time
WST
Temp
°C
App
Temp
°C
Dew
Point
Rel
Hum
%
Delta-T
°C
Wind Press
QNH
hPa
Press
MSL
hPa
Rain
since 9 am
mm
Dir
 
Spd
km/h
Gust
km/h
Spd
kts
Gust
kts
10/11:30pm 27.4 24.0 7.8 29 10.7 SSE 15 24 8 13 - - -
10/11:00pm 26.6 24.4 10.7 37 9.1 S 13 15 7 8 - - -
10/10:30pm 27.2 25.1 11.3 37 9.2 SSW 13 17 7 9 - - -
10/10:00pm 27.8 25.4 10.1 33 10.1 SW 13 17 7 9 - - 0.0
10/09:30pm 28.5 25.5 9.2 30 10.9 SW 15 22 8 12 - - 0.0
10/09:00pm 28.7 25.6 8.9 29 11.1 WSW 15 20 8 11 - - 0.0
10/08:30pm 29.4 26.3 7.3 25 12.1 SW 13 17 7 9 - - 0.0
10/08:00pm 30.3 26.5 5.6 21 13.2 WSW 15 20 8 11 - - 0.0
10/07:30pm 30.9 27.2 4.6 19 13.9 WSW 13 17 7 9 - - 0.0
10/07:00pm 32.5 29.3 6.7 20 14.2 WSW 13 17 7 9 - - 0.0
10/06:30pm 34.8 30.7 2.3 13 16.9 WSW 13 24 7 13 - - 0.0
10/06:00pm 35.8 31.3 2.0 12 17.6 WSW 15 24 8 13 - - 0.0
10/05:30pm 36.5 30.7 0.0 10 18.5 WSW 20 28 11 15 - - 0.0
10/05:00pm 37.1 31.9 0.4 10 18.8 WSW 17 26 9 14 - - 0.0
10/04:30pm 38.3 33.7 1.3 10 19.3 W 15 28 8 15 - - 0.0
10/04:00pm 38.5 32.9 0.0 9 19.8 W 19 32 10 17 - - 0.0
10/03:30pm 38.5 33.1 1.5 10 19.4 WSW 19 28 10 15 - - 0.0
10/03:00pm 38.2 33.4 2.6 11 19.0 W 17 30 9 16 - - 0.0
10/02:30pm 39.0 34.5 4.4 12 19.0 W 17 33 9 18 - - 0.0
10/02:00pm 38.2 33.0 3.8 12 18.7 W 20 33 11 18 - - 0.0
10/01:30pm 39.0 34.7 7.7 15 18.1 W 20 33 11 18 - - 0.0
10/01:00pm 39.9 34.6 -0.5 8 20.7 NW 17 32 9 17 - - 0.0
10/12:30pm 40.0 34.7 -0.5 8 20.8 NW 17 39 9 21 - - 0.0
10/12:00pm 39.8 34.6 -2.4 7 21.0 NNE 15 30 8 16 - - 0.0
10/11:30am 39.0 33.5 0.4 9 20.0 N 19 33 10 18 - - 0.0
10/11:00am 37.6 33.3 0.8 10 19.0 NNE 13 24 7 13 - - 0.0
10/10:30am 34.9 31.8 7.1 18 15.6 NE 13 20 7 11 - - 0.0
10/10:00am 33.2 30.0 9.9 24 13.6 ENE 17 26 9 14 - - 0.0
10/09:30am 31.0 27.6 9.3 26 12.4 ENE 17 26 9 14 - - 0.0
10/09:00am 28.5 25.2 9.7 31 10.7 ENE 17 28 9 15 - - 0.0
10/08:30am 26.9 23.2 9.3 33 9.9 ENE 19 30 10 16 - - 0.0
10/08:00am 25.9 22.7 10.1 37 8.9 ENE 17 28 9 15 - - 0.0
10/07:30am 24.5 20.8 10.0 40 8.1 E 20 28 11 15 - - 0.0
10/07:00am 23.3 19.2 10.0 43 7.4 E 22 28 12 15 - - 0.0
10/06:30am 21.9 17.6 9.4 45 6.8 E 22 28 12 15 - - 0.0
10/06:00am 21.7 17.7 8.9 44 6.9 E 20 28 11 15 - - 0.0
10/05:30am 21.9 17.5 8.8 43 7.1 E 22 32 12 17 - - 0.0
10/05:00am 22.4 18.0 8.9 42 7.3 E 22 35 12 19 - - 0.0
10/04:30am 23.0 18.2 8.7 40 7.8 E 24 35 13 19 - - 0.0
10/04:00am 22.9 18.4 8.6 40 7.7 E 22 33 12 18 - - 0.0
10/03:30am 23.1 19.0 8.8 40 7.8 E 20 32 11 17 - - 0.0
10/03:00am 23.6 19.5 8.8 39 8.1 E 20 28 11 15 - - 0.0
10/02:30am 23.9 20.1 9.1 39 8.1 E 19 28 10 15 - - 0.0
10/02:00am 24.4 20.5 9.6 39 8.2 E 20 28 11 15 - - 0.0
10/01:30am 24.9 21.2 9.6 38 8.5 E 19 26 10 14 - - 0.0
10/01:00am 26.2 22.6 10.0 36 9.1 E 19 30 10 16 - - 0.0
10/12:30am 26.8 23.8 12.1 40 8.6 ESE 19 30 10 16 - - 0.0
10/12:00am 27.5 24.9 11.9 38 9.1 ESE 17 26 9 14 - - 0.0
 
Date/Time
WST
Temp
°C
App
Temp
°C
Dew
Point
Rel
Hum
%
Delta-T
°C
Wind Press
QNH
hPa
Press
MSL
hPa
Rain
since 9 am
mm
Dir
 
Spd
km/h
Gust
km/h
Spd
kts
Gust
kts
09/11:30pm 27.9 25.0 9.7 32 10.3 ESE 15 22 8 12 - - 0.0
09/11:00pm 29.0 24.4 3.8 20 13.0 SE 17 28 9 15 - - 0.0
09/10:30pm 29.8 25.1 2.9 18 13.7 SSE 17 24 9 13 - - 0.0

Other Formats:

Comma delimited format used in spreadsheet applications
http://www.bom.gov.au/fwo/IDW60801/IDW60801.95610.axf

JavaScript Object Notation format (JSON) in row-major order
http://www.bom.gov.au/fwo/IDW60801/IDW60801.95610.json